createdAt,value
2023-06-28T00:02:05.107Z,22.30
2023-06-28T00:04:32.474Z,22.30
2023-06-28T00:06:59.788Z,22.20
2023-06-28T00:09:28.769Z,22.20
2023-06-28T00:11:56.111Z,22.10
2023-06-28T00:14:23.456Z,22.10
2023-06-28T00:16:50.727Z,22.10
2023-06-28T00:19:28.064Z,22.00
2023-06-28T00:21:58.324Z,22.00
2023-06-28T00:24:25.625Z,21.90
2023-06-28T00:26:55.072Z,21.90
2023-06-28T00:29:22.330Z,21.90
2023-06-28T00:31:51.867Z,21.90
2023-06-28T00:34:21.570Z,21.80
2023-06-28T00:36:48.896Z,21.80
2023-06-28T00:39:16.363Z,21.80
2023-06-28T00:41:45.876Z,21.70
2023-06-28T00:44:13.164Z,21.70
2023-06-28T00:46:42.951Z,21.60
2023-06-28T00:49:10.265Z,21.60
2023-06-28T00:51:37.940Z,21.60
2023-06-28T00:54:05.459Z,21.50
2023-06-28T00:56:35.665Z,21.50
2023-06-28T00:59:05.033Z,21.50
2023-06-28T01:01:33.106Z,21.40
2023-06-28T01:04:01.637Z,21.40
2023-06-28T01:06:36.593Z,21.40
2023-06-28T01:09:05.786Z,21.40
2023-06-28T01:11:33.360Z,21.40
2023-06-28T01:14:01.646Z,21.30
2023-06-28T01:16:31.421Z,21.30
2023-06-28T01:19:04.513Z,21.20
2023-06-28T01:21:38.937Z,21.20
2023-06-28T01:24:11.947Z,21.10
2023-06-28T01:26:44.072Z,21.10
2023-06-28T01:29:11.436Z,21.00
2023-06-28T01:31:39.581Z,21.00
2023-06-28T01:34:06.934Z,20.90
2023-06-28T01:36:37.013Z,20.90
2023-06-28T01:39:04.709Z,20.80
2023-06-28T01:41:32.324Z,20.80
2023-06-28T01:43:59.739Z,20.70
2023-06-28T01:46:27.568Z,20.70
2023-06-28T01:48:57.713Z,20.70
2023-06-28T01:51:29.370Z,20.60
2023-06-28T01:53:59.623Z,20.50
2023-06-28T01:56:26.940Z,20.50
2023-06-28T01:58:56.429Z,20.50
2023-06-28T02:01:26.283Z,20.40
2023-06-28T02:03:53.782Z,20.40
2023-06-28T02:06:23.334Z,20.40
2023-06-28T02:08:50.616Z,20.30
2023-06-28T02:11:17.894Z,20.30
2023-06-28T02:13:45.186Z,20.30
2023-06-28T02:16:16.973Z,20.30
2023-06-28T02:18:46.579Z,20.20
2023-06-28T02:21:15.502Z,20.20
2023-06-28T02:23:42.993Z,20.20
2023-06-28T02:26:10.283Z,20.10
2023-06-28T02:28:37.575Z,20.10
2023-06-28T02:31:04.877Z,20.10
2023-06-28T02:33:34.692Z,20.10
2023-06-28T02:36:01.979Z,20.10
2023-06-28T02:38:33.664Z,20.00
2023-06-28T02:41:01.029Z,20.00
2023-06-28T02:43:30.762Z,20.00
2023-06-28T02:45:58.075Z,19.90
2023-06-28T02:48:27.839Z,19.90
2023-06-28T02:50:55.210Z,19.90
2023-06-28T02:53:22.728Z,19.90
2023-06-28T02:55:52.512Z,19.80
2023-06-28T02:58:19.819Z,19.80
2023-06-28T03:00:48.312Z,19.80
2023-06-28T03:03:15.842Z,19.70
2023-06-28T03:05:45.497Z,19.70
2023-06-28T03:08:12.810Z,19.70
2023-06-28T03:10:40.576Z,19.60
2023-06-28T03:13:12.728Z,19.60
2023-06-28T03:15:42.427Z,19.60
2023-06-28T03:18:09.755Z,19.50
2023-06-28T03:20:37.165Z,19.50
2023-06-28T03:23:04.857Z,19.50
2023-06-28T03:25:32.474Z,19.50
2023-06-28T03:28:02.339Z,19.40
2023-06-28T03:30:29.667Z,19.40
2023-06-28T03:32:56.981Z,19.40
2023-06-28T03:35:24.329Z,19.40
2023-06-28T03:38:00.397Z,19.30
2023-06-28T03:40:30.544Z,19.30
2023-06-28T03:42:59.972Z,19.30
2023-06-28T03:45:27.258Z,19.30
2023-06-28T03:47:56.817Z,19.20
2023-06-28T03:50:24.129Z,19.20
2023-06-28T03:52:53.885Z,19.20
2023-06-28T03:55:23.702Z,19.10
2023-06-28T03:57:53.787Z,19.10
2023-06-28T04:00:21.118Z,19.10
2023-06-28T04:02:51.099Z,19.00
2023-06-28T04:05:18.450Z,19.00
2023-06-28T04:07:55.703Z,18.90
2023-06-28T04:10:23.140Z,18.90
2023-06-28T04:12:50.439Z,18.90
2023-06-28T04:15:17.731Z,18.80
2023-06-28T04:17:45.459Z,18.80
2023-06-28T04:20:13.316Z,18.80
2023-06-28T04:22:40.651Z,18.80
2023-06-28T04:25:10.200Z,18.70
2023-06-28T04:27:39.748Z,18.70
2023-06-28T04:30:07.724Z,18.70
2023-06-28T04:32:35.152Z,18.70
2023-06-28T04:35:02.690Z,18.70
2023-06-28T04:37:32.597Z,18.60
2023-06-28T04:40:01.885Z,18.70
2023-06-28T04:42:29.765Z,18.60
2023-06-28T04:45:02.736Z,18.60
2023-06-28T04:47:30.166Z,18.60
2023-06-28T04:49:57.643Z,18.60
2023-06-28T04:52:26.209Z,18.60
2023-06-28T04:54:56.410Z,18.60
2023-06-28T04:57:25.744Z,18.60
2023-06-28T04:59:53.043Z,18.60
2023-06-28T05:02:26.164Z,18.60
2023-06-28T05:04:53.902Z,18.60
2023-06-28T05:07:21.344Z,18.60
2023-06-28T05:09:51.119Z,18.60
2023-06-28T05:12:18.432Z,18.60
2023-06-28T05:14:46.144Z,18.60
2023-06-28T05:17:13.751Z,18.60
2023-06-28T05:19:43.790Z,18.60
2023-06-28T05:22:11.074Z,18.60
2023-06-28T05:24:38.490Z,18.60
2023-06-28T05:27:05.924Z,18.60
2023-06-28T05:29:33.178Z,18.60
2023-06-28T05:32:00.507Z,18.60
2023-06-28T05:34:27.831Z,18.60
2023-06-28T05:36:55.246Z,18.60
2023-06-28T05:39:22.594Z,18.60
2023-06-28T05:41:50.158Z,18.60
2023-06-28T05:44:22.462Z,18.70
2023-06-28T05:46:50.288Z,18.70
2023-06-28T05:49:17.686Z,18.80
2023-06-28T05:51:47.915Z,18.80
2023-06-28T05:54:17.401Z,18.80
2023-06-28T05:56:45.103Z,18.80
2023-06-28T05:59:12.504Z,18.90
2023-06-28T06:01:39.804Z,18.90
2023-06-28T06:04:09.633Z,18.90
2023-06-28T06:06:37.007Z,19.00
2023-06-28T06:09:04.582Z,19.00
2023-06-28T06:11:31.898Z,19.00
2023-06-28T06:13:59.203Z,19.10
2023-06-28T06:16:29.181Z,19.10
2023-06-28T06:18:56.552Z,19.10
2023-06-28T06:21:23.831Z,19.10
2023-06-28T06:23:52.669Z,19.20
2023-06-28T06:26:19.966Z,19.20
2023-06-28T06:28:47.388Z,19.20
2023-06-28T06:31:19.556Z,19.20
2023-06-28T06:33:49.450Z,19.20
2023-06-28T06:36:21.797Z,19.30
2023-06-28T06:38:49.306Z,19.30
2023-06-28T06:41:16.636Z,19.40
2023-06-28T06:43:43.946Z,19.40
2023-06-28T06:46:11.206Z,19.40
2023-06-28T06:48:38.992Z,19.40
2023-06-28T06:51:08.586Z,19.50
2023-06-28T06:53:38.268Z,19.50
2023-06-28T06:56:06.053Z,19.60
2023-06-28T06:58:33.533Z,19.60
2023-06-28T07:01:00.865Z,19.70
2023-06-28T07:03:28.413Z,19.70
2023-06-28T07:05:55.852Z,19.70
2023-06-28T07:08:25.554Z,19.80
2023-06-28T07:10:55.222Z,19.80
2023-06-28T07:13:22.562Z,19.90
2023-06-28T07:15:49.867Z,19.90
2023-06-28T07:18:17.512Z,19.90
2023-06-28T07:20:45.106Z,20.00
2023-06-28T07:23:12.464Z,20.10
2023-06-28T07:25:40.391Z,20.10
2023-06-28T07:28:10.061Z,20.10
2023-06-28T07:30:54.830Z,20.20
2023-06-28T07:33:23.532Z,20.20
2023-06-28T07:35:51.673Z,20.20
2023-06-28T07:38:20.054Z,20.30
2023-06-28T07:40:48.178Z,20.40
2023-06-28T07:43:19.549Z,20.40
2023-06-28T07:45:49.581Z,20.40
2023-06-28T07:48:16.903Z,20.50
2023-06-28T07:50:49.118Z,20.50
2023-06-28T07:53:16.452Z,20.60
2023-06-28T07:55:43.967Z,20.60
2023-06-28T07:58:11.534Z,20.60
2023-06-28T08:00:41.410Z,20.60
2023-06-28T08:03:10.009Z,20.60
2023-06-28T08:05:37.508Z,20.70
2023-06-28T08:08:05.214Z,20.70
2023-06-28T08:10:32.577Z,20.70
2023-06-28T08:13:00.238Z,20.70
2023-06-28T08:15:27.657Z,20.70
2023-06-28T08:17:57.407Z,20.70
2023-06-28T08:20:29.399Z,20.70
2023-06-28T08:22:56.711Z,20.80
2023-06-28T08:25:24.138Z,20.80
2023-06-28T08:27:51.424Z,20.80
2023-06-28T08:30:18.702Z,20.80
2023-06-28T08:32:46.458Z,20.90
2023-06-28T08:35:13.810Z,20.90
2023-06-28T08:37:43.589Z,20.90
2023-06-28T08:40:11.924Z,20.90
2023-06-28T08:42:44.161Z,21.00
2023-06-28T08:45:14.972Z,21.00
2023-06-28T08:47:46.201Z,21.00
2023-06-28T08:50:14.121Z,21.00
2023-06-28T08:52:46.641Z,21.10
2023-06-28T08:55:16.581Z,21.10
2023-06-28T08:57:44.827Z,21.20
2023-06-28T09:00:16.085Z,21.20
2023-06-28T09:02:50.421Z,21.20
2023-06-28T09:05:21.134Z,21.30
2023-06-28T09:07:51.695Z,21.30
2023-06-28T09:10:20.048Z,21.30
2023-06-28T09:12:53.506Z,21.40
2023-06-28T09:15:25.319Z,21.40
2023-06-28T09:17:54.952Z,21.50
2023-06-28T09:20:24.995Z,21.60
2023-06-28T09:23:02.573Z,21.60
2023-06-28T09:25:34.895Z,21.70
2023-06-28T09:28:04.661Z,21.80
2023-06-28T09:30:31.944Z,21.80
2023-06-28T09:33:05.071Z,21.80
2023-06-28T09:35:32.438Z,21.80
2023-06-28T09:38:05.482Z,21.80
2023-06-28T09:40:35.364Z,21.90
2023-06-28T09:43:03.017Z,21.90
2023-06-28T09:45:36.452Z,21.90
2023-06-28T09:48:05.478Z,22.00
2023-06-28T09:50:42.382Z,22.00
2023-06-28T09:53:11.756Z,22.00
2023-06-28T09:55:40.902Z,22.00
2023-06-28T09:58:14.829Z,22.10
2023-06-28T10:00:44.226Z,22.10
2023-06-28T10:03:17.349Z,22.20
2023-06-28T10:05:46.243Z,22.30
2023-06-28T10:08:18.136Z,22.30
2023-06-28T10:10:47.461Z,22.30
2023-06-28T10:13:27.516Z,22.40
2023-06-28T10:16:08.948Z,22.50
2023-06-28T10:18:36.253Z,22.50
2023-06-28T10:21:08.020Z,22.60
2023-06-28T10:23:36.962Z,22.60
2023-06-28T10:26:04.599Z,22.60
2023-06-28T10:28:38.185Z,22.70
2023-06-28T10:31:08.871Z,22.80
2023-06-28T10:33:39.147Z,22.80
2023-06-28T10:36:06.637Z,22.90
2023-06-28T10:38:38.144Z,22.90
2023-06-28T10:41:08.807Z,23.00
2023-06-28T10:43:36.362Z,23.00
2023-06-28T10:46:03.791Z,23.00
2023-06-28T10:48:32.378Z,23.10
2023-06-28T10:51:06.792Z,23.10
2023-06-28T10:53:36.389Z,23.20
2023-06-28T10:56:13.314Z,23.20
2023-06-28T10:58:44.815Z,23.20
2023-06-28T11:01:31.774Z,23.30
2023-06-28T11:04:22.656Z,23.30
2023-06-28T11:07:12.672Z,23.40
2023-06-28T11:09:42.315Z,23.50
2023-06-28T11:12:14.621Z,23.60
2023-06-28T11:14:41.971Z,23.60
2023-06-28T11:17:12.124Z,23.70
2023-06-28T11:19:40.971Z,23.70
2023-06-28T11:22:08.270Z,23.80
2023-06-28T11:24:38.341Z,23.80
2023-06-28T11:27:18.424Z,23.90
2023-06-28T11:30:02.658Z,23.90
2023-06-28T11:32:33.715Z,23.90
2023-06-28T11:35:02.091Z,24.00
2023-06-28T11:37:31.523Z,24.10
2023-06-28T11:40:02.001Z,24.10
2023-06-28T11:42:31.879Z,24.20
2023-06-28T11:44:59.202Z,24.20
2023-06-28T11:47:28.624Z,24.30
2023-06-28T11:49:59.153Z,24.40
2023-06-28T11:52:27.243Z,24.40
2023-06-28T11:54:54.716Z,24.50
2023-06-28T11:57:24.562Z,24.50
2023-06-28T11:59:54.472Z,24.60
2023-06-28T12:02:24.195Z,24.70
2023-06-28T12:05:00.072Z,24.80
2023-06-28T12:07:28.087Z,24.80
2023-06-28T12:09:59.242Z,24.90
2023-06-28T12:12:39.591Z,25.00
2023-06-28T12:15:10.111Z,25.10
2023-06-28T12:17:42.060Z,25.20
2023-06-28T12:20:10.412Z,25.20
2023-06-28T12:22:46.018Z,25.30
2023-06-28T12:25:13.940Z,25.40
2023-06-28T12:27:43.692Z,25.50
2023-06-28T12:30:17.150Z,25.60
2023-06-28T12:32:48.688Z,25.70
2023-06-28T12:35:27.170Z,25.70
2023-06-28T12:38:02.781Z,25.80
2023-06-28T12:40:34.437Z,25.90
2023-06-28T12:43:15.331Z,26.00
2023-06-28T12:45:50.977Z,26.10
2023-06-28T12:48:23.355Z,26.10
2023-06-28T12:50:56.875Z,26.20
2023-06-28T12:53:24.275Z,26.30
2023-06-28T12:55:51.882Z,26.30
2023-06-28T12:58:19.378Z,26.40
2023-06-28T13:00:47.338Z,26.50
2023-06-28T13:03:17.628Z,26.50
2023-06-28T13:05:46.127Z,26.60
2023-06-28T13:08:13.634Z,26.70
2023-06-28T13:10:43.669Z,26.80
2023-06-28T13:13:13.645Z,26.80
2023-06-28T13:15:43.540Z,26.90
2023-06-28T13:18:11.199Z,27.00
2023-06-28T13:20:38.545Z,27.10
2023-06-28T13:23:05.849Z,27.10
2023-06-28T13:25:35.426Z,27.20
2023-06-28T13:28:02.838Z,27.20
2023-06-28T13:30:31.678Z,27.30
2023-06-28T13:32:59.363Z,27.40
2023-06-28T13:35:26.719Z,27.40
2023-06-28T13:37:54.087Z,27.50
2023-06-28T13:40:24.204Z,27.50
2023-06-28T13:42:51.532Z,27.60
2023-06-28T13:45:18.808Z,27.60
2023-06-28T13:47:46.168Z,27.70
2023-06-28T13:50:18.418Z,27.80
2023-06-28T13:52:45.753Z,27.90
2023-06-28T13:55:15.357Z,27.90
2023-06-28T13:57:42.758Z,28.00
2023-06-28T14:00:13.357Z,28.10
2023-06-28T14:02:40.826Z,28.10
2023-06-28T14:05:08.944Z,28.10
2023-06-28T14:07:36.470Z,28.00
2023-06-28T14:10:04.573Z,28.00
2023-06-28T14:12:31.940Z,27.90
2023-06-28T14:14:59.230Z,28.00
2023-06-28T14:17:28.812Z,27.90
2023-06-28T14:19:56.184Z,27.80
2023-06-28T14:22:24.663Z,27.80
2023-06-28T14:24:52.048Z,27.70
2023-06-28T14:27:22.249Z,27.70
2023-06-28T14:29:52.011Z,27.60
2023-06-28T14:32:20.966Z,27.60
2023-06-28T14:34:50.647Z,27.50
2023-06-28T14:37:17.947Z,27.50
2023-06-28T14:39:47.945Z,27.40
2023-06-28T14:42:15.208Z,27.40
2023-06-28T14:44:42.517Z,27.30
2023-06-28T14:47:12.282Z,27.30
2023-06-28T14:49:39.628Z,27.20
2023-06-28T14:52:07.241Z,27.20
2023-06-28T14:54:34.575Z,27.20
2023-06-28T14:57:02.560Z,27.10
2023-06-28T14:59:32.382Z,27.10
2023-06-28T15:02:02.165Z,27.10
2023-06-28T15:04:29.505Z,27.00
2023-06-28T15:06:59.031Z,27.00
2023-06-28T15:09:26.403Z,27.00
2023-06-28T15:11:53.671Z,27.00
2023-06-28T15:14:23.201Z,27.00
2023-06-28T15:16:51.063Z,27.00
2023-06-28T15:19:18.608Z,27.00
2023-06-28T15:21:45.967Z,27.00
2023-06-28T15:24:13.381Z,27.00
2023-06-28T15:26:43.262Z,27.00
2023-06-28T15:29:10.564Z,27.00
2023-06-28T15:31:40.559Z,26.90
2023-06-28T15:34:10.018Z,26.90
2023-06-28T15:36:39.420Z,26.90
2023-06-28T15:39:06.718Z,26.90
2023-06-28T15:41:34.006Z,26.90
2023-06-28T15:44:01.295Z,26.90
2023-06-28T15:46:33.174Z,26.90
2023-06-28T15:49:04.659Z,26.90
2023-06-28T15:51:31.988Z,26.80
2023-06-28T15:54:04.202Z,26.80
2023-06-28T15:56:32.037Z,26.80
2023-06-28T15:59:01.990Z,26.80
2023-06-28T16:01:29.362Z,26.80
2023-06-28T16:03:59.471Z,26.70
2023-06-28T16:06:26.854Z,26.70
2023-06-28T16:08:54.471Z,26.70
2023-06-28T16:11:24.164Z,26.70
2023-06-28T16:13:56.047Z,26.70
2023-06-28T16:16:23.866Z,26.70
2023-06-28T16:18:51.166Z,26.70
2023-06-28T16:21:18.586Z,26.60
2023-06-28T16:23:45.892Z,26.60
2023-06-28T16:26:15.650Z,26.60
2023-06-28T16:28:45.365Z,26.60
2023-06-28T16:31:12.840Z,26.60
2023-06-28T16:33:40.206Z,26.60
2023-06-28T16:36:07.514Z,26.60
2023-06-28T16:38:39.613Z,26.50
2023-06-28T16:41:09.288Z,26.50
2023-06-28T16:43:36.648Z,26.50
2023-06-28T16:46:04.122Z,26.50
2023-06-28T16:48:31.427Z,26.40
2023-06-28T16:50:58.849Z,26.40
2023-06-28T16:53:26.191Z,26.40
2023-06-28T16:55:53.531Z,26.40
2023-06-28T16:58:20.882Z,26.40
2023-06-28T17:00:48.261Z,26.40
2023-06-28T17:03:15.628Z,26.40
2023-06-28T17:05:47.333Z,26.30
2023-06-28T17:08:16.104Z,26.30
2023-06-28T17:10:47.199Z,26.30
2023-06-28T17:13:16.720Z,26.30
2023-06-28T17:15:44.008Z,26.30
2023-06-28T17:18:11.364Z,26.30
2023-06-28T17:20:38.850Z,26.30
2023-06-28T17:23:08.637Z,26.20
2023-06-28T17:25:38.119Z,26.20
2023-06-28T17:28:07.615Z,26.20
2023-06-28T17:30:34.936Z,26.20
2023-06-28T17:33:02.399Z,26.10
2023-06-28T17:35:29.702Z,26.10
2023-06-28T17:37:57.026Z,26.10
2023-06-28T17:40:24.482Z,26.10
2023-06-28T17:42:51.762Z,26.10
2023-06-28T17:45:21.296Z,26.10
2023-06-28T17:47:52.870Z,26.10
2023-06-28T17:50:21.476Z,26.00
2023-06-28T17:52:49.432Z,26.00
2023-06-28T17:55:16.892Z,26.00
2023-06-28T17:57:46.528Z,26.00
2023-06-28T18:00:14.570Z,25.90
2023-06-28T18:02:44.322Z,25.90
2023-06-28T18:05:11.818Z,25.90
2023-06-28T18:07:39.201Z,25.90
2023-06-28T18:10:11.639Z,25.90
2023-06-28T18:12:39.077Z,25.80
2023-06-28T18:15:07.337Z,25.90
2023-06-28T18:17:34.814Z,25.80
2023-06-28T18:20:04.333Z,25.80
2023-06-28T18:22:33.934Z,25.80
2023-06-28T18:25:04.285Z,25.80
2023-06-28T18:27:36.233Z,25.80
2023-06-28T18:30:06.730Z,25.80
2023-06-28T18:32:36.458Z,25.70
2023-06-28T18:35:03.828Z,25.70
2023-06-28T18:37:33.624Z,25.60
2023-06-28T18:40:01.069Z,25.60
2023-06-28T18:42:28.479Z,25.60
2023-06-28T18:44:58.235Z,25.60
2023-06-28T18:47:25.599Z,25.60
2023-06-28T18:49:52.899Z,25.50
2023-06-28T18:52:22.919Z,25.50
2023-06-28T18:54:50.207Z,25.50
2023-06-28T18:57:20.071Z,25.50
2023-06-28T18:59:47.387Z,25.40
2023-06-28T19:02:14.719Z,25.50
2023-06-28T19:04:42.332Z,25.40
2023-06-28T19:07:09.784Z,25.40
2023-06-28T19:09:37.172Z,25.40
2023-06-28T19:12:07.606Z,25.30
2023-06-28T19:14:35.013Z,25.30
2023-06-28T19:17:06.325Z,25.30
2023-06-28T19:19:33.592Z,25.20
2023-06-28T19:22:01.070Z,25.20
2023-06-28T19:24:28.413Z,25.20
2023-06-28T19:26:56.286Z,25.20
2023-06-28T19:29:23.694Z,25.10
2023-06-28T19:31:51.164Z,25.10
2023-06-28T19:34:18.459Z,25.00
2023-06-28T19:36:48.099Z,25.00
2023-06-28T19:39:18.040Z,25.00
2023-06-28T19:41:45.390Z,25.00
2023-06-28T19:44:12.660Z,24.90
2023-06-28T19:46:39.971Z,24.90
2023-06-28T19:49:07.322Z,24.90
2023-06-28T19:51:34.615Z,24.80
2023-06-28T19:54:01.935Z,24.80
2023-06-28T19:56:29.241Z,24.80
2023-06-28T19:58:56.820Z,24.80
2023-06-28T20:01:26.387Z,24.80
2023-06-28T20:03:53.811Z,24.70
2023-06-28T20:06:21.100Z,24.70
2023-06-28T20:08:48.838Z,24.70
2023-06-28T20:11:16.244Z,24.60
2023-06-28T20:13:45.963Z,24.60
2023-06-28T20:16:13.343Z,24.60
2023-06-28T20:18:40.655Z,24.60
2023-06-28T20:21:08.068Z,24.60
2023-06-28T20:23:35.426Z,24.60
2023-06-28T20:26:05.289Z,24.50
2023-06-28T20:28:34.614Z,24.50
2023-06-28T20:31:02.061Z,24.40
2023-06-28T20:33:34.135Z,24.40
2023-06-28T20:36:01.434Z,24.40
2023-06-28T20:38:28.727Z,24.40
2023-06-28T20:41:01.107Z,24.40
2023-06-28T20:43:28.421Z,24.30
2023-06-28T20:46:02.543Z,24.30
2023-06-28T20:48:33.388Z,24.20
2023-06-28T20:51:03.136Z,24.20
2023-06-28T20:53:30.437Z,24.20
2023-06-28T20:55:57.737Z,24.20
2023-06-28T20:58:27.609Z,24.10
2023-06-28T21:00:55.020Z,24.10
2023-06-28T21:03:22.546Z,24.10
2023-06-28T21:05:52.206Z,24.00
2023-06-28T21:08:19.485Z,24.00
2023-06-28T21:10:46.859Z,24.00
2023-06-28T21:13:14.560Z,23.90
2023-06-28T21:15:43.715Z,23.90
2023-06-28T21:18:14.543Z,23.90
2023-06-28T21:20:46.446Z,23.90
2023-06-28T21:23:15.868Z,23.80
2023-06-28T21:25:43.583Z,23.80
2023-06-28T21:28:11.132Z,23.70
2023-06-28T21:30:38.542Z,23.70
2023-06-28T21:33:06.016Z,23.70
2023-06-28T21:35:33.395Z,23.60
2023-06-28T21:38:03.553Z,23.60
2023-06-28T21:40:30.844Z,23.60
2023-06-28T21:42:58.193Z,23.50
2023-06-28T21:45:25.474Z,23.50
2023-06-28T21:47:53.032Z,23.40
2023-06-28T21:50:20.421Z,23.40
2023-06-28T21:52:47.699Z,23.40
2023-06-28T21:55:19.980Z,23.30
2023-06-28T21:57:47.319Z,23.30
2023-06-28T22:00:22.769Z,23.30
2023-06-28T22:02:50.291Z,23.20
2023-06-28T22:05:20.335Z,23.20
2023-06-28T22:07:50.230Z,23.20
2023-06-28T22:10:18.337Z,23.10
2023-06-28T22:12:48.404Z,23.10
2023-06-28T22:15:17.240Z,23.10
2023-06-28T22:17:47.202Z,23.00
2023-06-28T22:20:14.706Z,23.00
2023-06-28T22:22:42.040Z,23.00
2023-06-28T22:25:12.605Z,23.00
2023-06-28T22:27:39.884Z,22.90
2023-06-28T22:30:10.174Z,22.90
2023-06-28T22:32:45.424Z,22.80
2023-06-28T22:35:12.795Z,22.80
2023-06-28T22:37:42.647Z,22.80
2023-06-28T22:40:10.165Z,22.70
2023-06-28T22:42:37.923Z,22.70
2023-06-28T22:45:05.641Z,22.70
2023-06-28T22:47:33.026Z,22.60
2023-06-28T22:50:00.472Z,22.60
2023-06-28T22:52:27.852Z,22.50
2023-06-28T22:54:57.372Z,22.50
2023-06-28T22:57:24.712Z,22.50
2023-06-28T22:59:56.606Z,22.40
2023-06-28T23:02:26.335Z,22.40
2023-06-28T23:04:53.645Z,22.40
2023-06-28T23:07:23.732Z,22.40
2023-06-28T23:09:53.300Z,22.30
2023-06-28T23:12:22.728Z,22.30
2023-06-28T23:14:53.459Z,22.20
2023-06-28T23:17:25.908Z,22.30
2023-06-28T23:19:53.210Z,22.20
2023-06-28T23:22:22.592Z,22.20
2023-06-28T23:24:49.883Z,22.20
2023-06-28T23:27:19.700Z,22.10
2023-06-28T23:29:47.024Z,22.10
2023-06-28T23:32:15.137Z,22.10
2023-06-28T23:34:44.113Z,22.10
2023-06-28T23:37:12.845Z,22.10
2023-06-28T23:39:42.270Z,22.00
2023-06-28T23:42:14.641Z,22.00
2023-06-28T23:44:49.059Z,22.00
2023-06-28T23:47:19.697Z,22.00
2023-06-28T23:49:51.571Z,22.00
2023-06-28T23:52:19.813Z,21.90
2023-06-28T23:54:50.088Z,21.90
2023-06-28T23:57:19.814Z,21.90
2023-06-28T23:59:47.081Z,21.80
